Port Jefferson Station, New York
Current Conditions -  °F | °C
As of 12:56 PM on Monday 26 Jan 2015 (Local Time) from KISP Reporting Station
Light Snow Light Snow  
Wind Chill: 10°   Ceiling: 1300
Heat Index: 24°   Visibility: 0.75mi
Dew Point: 19°   Wind: 18mph
Humidity: 81%   Direction: 40°NE
Pressure: 29.88"   Gusts: NA
Location:  40.93°N, 73.05°W
Report Text: KISP 261756Z 04016KT 3/4SM R06/4000V5500FT -SN SCT000 BKN013 OVC030 M04/M07 A2988 RMK AO2 SFC VIS 1 SLP119 SN SCT000 931005 4/001 P0000 60001 T10441072 11039 21050 58041
Loading
Personal Weather Stations






























Interactive Weather Map New forecast layout! Learn more

10-Day Weather Forecast

Advertisements
Track Severe Weather on mobile